sensor_id;sensor_type;location;lat;lon;timestamp;temperature;humidity
37594;DHT22;23441;50.856;6.076;2022-09-12T00:00:49;12.70;99.90
37594;DHT22;23441;50.856;6.076;2022-09-12T00:03:16;12.70;99.90
37594;DHT22;23441;50.856;6.076;2022-09-12T00:05:46;12.60;99.90
37594;DHT22;23441;50.856;6.076;2022-09-12T00:08:13;12.60;99.90
37594;DHT22;23441;50.856;6.076;2022-09-12T00:10:41;12.60;99.90
37594;DHT22;23441;50.856;6.076;2022-09-12T00:13:08;12.60;99.90
37594;DHT22;23441;50.856;6.076;2022-09-12T00:15:38;12.60;99.90
37594;DHT22;23441;50.856;6.076;2022-09-12T00:18:06;12.60;99.90
37594;DHT22;23441;50.856;6.076;2022-09-12T00:20:33;12.60;99.90
37594;DHT22;23441;50.856;6.076;2022-09-12T00:22:59;12.60;99.90
37594;DHT22;23441;50.856;6.076;2022-09-12T00:25:25;12.60;99.90
37594;DHT22;23441;50.856;6.076;2022-09-12T00:27:52;12.60;99.90
37594;DHT22;23441;50.856;6.076;2022-09-12T00:30:18;12.60;99.90
37594;DHT22;23441;50.856;6.076;2022-09-12T00:32:44;12.50;99.90
37594;DHT22;23441;50.856;6.076;2022-09-12T00:35:09;12.50;99.90
37594;DHT22;23441;50.856;6.076;2022-09-12T00:37:35;12.50;99.90
37594;DHT22;23441;50.856;6.076;2022-09-12T00:40:02;12.50;99.90
37594;DHT22;23441;50.856;6.076;2022-09-12T00:42:28;12.50;99.90
37594;DHT22;23441;50.856;6.076;2022-09-12T00:44:54;12.50;99.90
37594;DHT22;23441;50.856;6.076;2022-09-12T00:47:23;12.50;99.90
37594;DHT22;23441;50.856;6.076;2022-09-12T00:50:01;12.40;99.90
37594;DHT22;23441;50.856;6.076;2022-09-12T00:52:43;12.40;99.90
37594;DHT22;23441;50.856;6.076;2022-09-12T00:55:14;12.40;99.90
37594;DHT22;23441;50.856;6.076;2022-09-12T00:58:08;12.30;99.90
37594;DHT22;23441;50.856;6.076;2022-09-12T01:00:35;12.30;99.90
37594;DHT22;23441;50.856;6.076;2022-09-12T01:03:10;12.30;99.90
37594;DHT22;23441;50.856;6.076;2022-09-12T01:05:43;12.30;99.90
37594;DHT22;23441;50.856;6.076;2022-09-12T01:08:18;12.20;99.90
37594;DHT22;23441;50.856;6.076;2022-09-12T01:10:45;12.20;99.90
37594;DHT22;23441;50.856;6.076;2022-09-12T01:13:11;12.20;99.90
37594;DHT22;23441;50.856;6.076;2022-09-12T01:15:38;12.20;99.90
37594;DHT22;23441;50.856;6.076;2022-09-12T01:27:31;12.20;99.90
37594;DHT22;23441;50.856;6.076;2022-09-12T01:36:08;12.10;99.90
37594;DHT22;23441;50.856;6.076;2022-09-12T01:38:57;12.10;99.90
37594;DHT22;23441;50.856;6.076;2022-09-12T01:47:28;12.00;99.90
37594;DHT22;23441;50.856;6.076;2022-09-12T02:00:25;11.90;99.90
37594;DHT22;23441;50.856;6.076;2022-09-12T02:05:33;11.90;99.90
37594;DHT22;23441;50.856;6.076;2022-09-12T02:08:27;11.90;99.90
37594;DHT22;23441;50.856;6.076;2022-09-12T02:11:08;11.80;99.90
37594;DHT22;23441;50.856;6.076;2022-09-12T02:14:03;11.80;99.90
37594;DHT22;23441;50.856;6.076;2022-09-12T02:16:47;11.80;99.90
37594;DHT22;23441;50.856;6.076;2022-09-12T02:19:20;11.80;99.90
37594;DHT22;23441;50.856;6.076;2022-09-12T02:21:53;11.80;99.90
37594;DHT22;23441;50.856;6.076;2022-09-12T02:24:28;11.80;99.90
37594;DHT22;23441;50.856;6.076;2022-09-12T02:27:00;11.80;99.90
37594;DHT22;23441;50.856;6.076;2022-09-12T02:29:29;11.80;99.90
37594;DHT22;23441;50.856;6.076;2022-09-12T02:32:02;11.70;99.90
37594;DHT22;23441;50.856;6.076;2022-09-12T02:40:23;11.70;99.90
37594;DHT22;23441;50.856;6.076;2022-09-12T02:42:50;11.70;99.90
37594;DHT22;23441;50.856;6.076;2022-09-12T02:45:16;11.70;99.90
37594;DHT22;23441;50.856;6.076;2022-09-12T02:50:19;11.60;99.90
37594;DHT22;23441;50.856;6.076;2022-09-12T02:52:45;11.70;99.90
37594;DHT22;23441;50.856;6.076;2022-09-12T02:55:13;11.70;99.90
37594;DHT22;23441;50.856;6.076;2022-09-12T02:57:39;11.70;99.90
37594;DHT22;23441;50.856;6.076;2022-09-12T03:00:06;11.80;99.90
37594;DHT22;23441;50.856;6.076;2022-09-12T03:02:58;11.80;99.90
37594;DHT22;23441;50.856;6.076;2022-09-12T03:05:44;11.80;99.90
37594;DHT22;23441;50.856;6.076;2022-09-12T03:08:35;11.90;99.90
37594;DHT22;23441;50.856;6.076;2022-09-12T03:11:41;11.90;99.90
37594;DHT22;23441;50.856;6.076;2022-09-12T03:20:16;11.70;99.90
37594;DHT22;23441;50.856;6.076;2022-09-12T03:22:53;11.80;99.90
37594;DHT22;23441;50.856;6.076;2022-09-12T03:25:39;11.80;99.90
37594;DHT22;23441;50.856;6.076;2022-09-12T03:28:11;11.80;99.90
37594;DHT22;23441;50.856;6.076;2022-09-12T03:30:40;11.80;99.90
37594;DHT22;23441;50.856;6.076;2022-09-12T03:33:18;11.80;99.90
37594;DHT22;23441;50.856;6.076;2022-09-12T03:35:46;11.80;99.90
37594;DHT22;23441;50.856;6.076;2022-09-12T03:38:12;11.80;99.90
37594;DHT22;23441;50.856;6.076;2022-09-12T03:40:38;11.90;99.90
37594;DHT22;23441;50.856;6.076;2022-09-12T03:43:06;11.90;99.90
37594;DHT22;23441;50.856;6.076;2022-09-12T03:45:33;11.80;99.90
37594;DHT22;23441;50.856;6.076;2022-09-12T03:48:00;11.80;99.90
37594;DHT22;23441;50.856;6.076;2022-09-12T03:50:26;11.80;99.90
37594;DHT22;23441;50.856;6.076;2022-09-12T03:52:52;11.80;99.90
37594;DHT22;23441;50.856;6.076;2022-09-12T03:55:18;11.80;99.90
37594;DHT22;23441;50.856;6.076;2022-09-12T03:57:44;11.80;99.90
37594;DHT22;23441;50.856;6.076;2022-09-12T04:00:10;11.80;99.90
37594;DHT22;23441;50.856;6.076;2022-09-12T04:02:37;11.80;99.90
37594;DHT22;23441;50.856;6.076;2022-09-12T04:05:03;11.80;99.90
37594;DHT22;23441;50.856;6.076;2022-09-12T04:07:29;11.80;99.90
37594;DHT22;23441;50.856;6.076;2022-09-12T04:09:55;11.80;99.90
37594;DHT22;23441;50.856;6.076;2022-09-12T04:12:21;11.80;99.90
37594;DHT22;23441;50.856;6.076;2022-09-12T04:14:47;11.80;99.90
37594;DHT22;23441;50.856;6.076;2022-09-12T04:17:14;11.80;99.90
37594;DHT22;23441;50.856;6.076;2022-09-12T04:19:40;11.80;99.90
37594;DHT22;23441;50.856;6.076;2022-09-12T04:22:06;11.80;99.90
37594;DHT22;23441;50.856;6.076;2022-09-12T04:24:32;11.70;99.90
37594;DHT22;23441;50.856;6.076;2022-09-12T04:26:58;11.70;99.90
37594;DHT22;23441;50.856;6.076;2022-09-12T04:29:23;11.70;99.90
37594;DHT22;23441;50.856;6.076;2022-09-12T04:31:49;11.70;99.90
37594;DHT22;23441;50.856;6.076;2022-09-12T04:34:15;11.70;99.90
37594;DHT22;23441;50.856;6.076;2022-09-12T04:36:42;11.70;99.90
37594;DHT22;23441;50.856;6.076;2022-09-12T04:39:09;11.70;99.90
37594;DHT22;23441;50.856;6.076;2022-09-12T04:41:36;11.80;99.90
37594;DHT22;23441;50.856;6.076;2022-09-12T04:44:06;11.70;99.90
37594;DHT22;23441;50.856;6.076;2022-09-12T04:46:38;11.70;99.90
37594;DHT22;23441;50.856;6.076;2022-09-12T04:49:06;11.70;99.90
37594;DHT22;23441;50.856;6.076;2022-09-12T04:51:34;11.60;99.90
37594;DHT22;23441;50.856;6.076;2022-09-12T04:54:16;11.60;99.90
37594;DHT22;23441;50.856;6.076;2022-09-12T04:56:45;11.60;99.90
37594;DHT22;23441;50.856;6.076;2022-09-12T04:59:14;11.60;99.90
37594;DHT22;23441;50.856;6.076;2022-09-12T05:01:45;11.60;99.90
37594;DHT22;23441;50.856;6.076;2022-09-12T05:04:11;11.60;99.90
37594;DHT22;23441;50.856;6.076;2022-09-12T05:06:38;11.70;99.90
37594;DHT22;23441;50.856;6.076;2022-09-12T05:09:06;11.60;99.90
37594;DHT22;23441;50.856;6.076;2022-09-12T05:11:35;11.60;99.90
37594;DHT22;23441;50.856;6.076;2022-09-12T05:14:02;11.60;99.90
37594;DHT22;23441;50.856;6.076;2022-09-12T05:16:29;11.60;99.90
37594;DHT22;23441;50.856;6.076;2022-09-12T05:18:56;11.60;99.90
37594;DHT22;23441;50.856;6.076;2022-09-12T05:21:23;11.60;99.90
37594;DHT22;23441;50.856;6.076;2022-09-12T05:23:51;11.60;99.90
37594;DHT22;23441;50.856;6.076;2022-09-12T05:26:17;11.70;99.90
37594;DHT22;23441;50.856;6.076;2022-09-12T05:28:46;11.80;99.90
37594;DHT22;23441;50.856;6.076;2022-09-12T05:31:24;11.80;99.90
37594;DHT22;23441;50.856;6.076;2022-09-12T05:33:52;11.80;99.90
37594;DHT22;23441;50.856;6.076;2022-09-12T05:36:27;11.90;99.90
37594;DHT22;23441;50.856;6.076;2022-09-12T05:38:55;12.00;99.90
37594;DHT22;23441;50.856;6.076;2022-09-12T05:41:23;12.00;99.90
37594;DHT22;23441;50.856;6.076;2022-09-12T05:43:55;12.10;99.90
37594;DHT22;23441;50.856;6.076;2022-09-12T05:46:24;12.10;99.90
37594;DHT22;23441;50.856;6.076;2022-09-12T05:48:52;12.20;99.90
37594;DHT22;23441;50.856;6.076;2022-09-12T05:51:21;12.20;99.90
37594;DHT22;23441;50.856;6.076;2022-09-12T05:53:53;12.30;99.90
37594;DHT22;23441;50.856;6.076;2022-09-12T05:56:25;12.40;99.90
37594;DHT22;23441;50.856;6.076;2022-09-12T05:59:00;12.40;99.90
37594;DHT22;23441;50.856;6.076;2022-09-12T06:01:29;12.50;99.90
37594;DHT22;23441;50.856;6.076;2022-09-12T06:03:58;12.50;99.90
37594;DHT22;23441;50.856;6.076;2022-09-12T06:06:27;12.60;99.90
37594;DHT22;23441;50.856;6.076;2022-09-12T06:08:57;12.70;99.90
37594;DHT22;23441;50.856;6.076;2022-09-12T06:11:26;12.80;99.90
37594;DHT22;23441;50.856;6.076;2022-09-12T06:13:55;12.90;99.90
37594;DHT22;23441;50.856;6.076;2022-09-12T06:16:25;12.90;99.90
37594;DHT22;23441;50.856;6.076;2022-09-12T06:18:55;13.00;99.90
37594;DHT22;23441;50.856;6.076;2022-09-12T06:21:23;13.20;99.90
37594;DHT22;23441;50.856;6.076;2022-09-12T06:23:49;13.20;99.90
37594;DHT22;23441;50.856;6.076;2022-09-12T06:26:16;13.30;99.90
37594;DHT22;23441;50.856;6.076;2022-09-12T06:28:46;13.40;99.90
37594;DHT22;23441;50.856;6.076;2022-09-12T06:31:14;13.60;99.90
37594;DHT22;23441;50.856;6.076;2022-09-12T06:33:47;13.70;99.90
37594;DHT22;23441;50.856;6.076;2022-09-12T06:36:17;14.00;99.90
37594;DHT22;23441;50.856;6.076;2022-09-12T06:41:23;14.20;99.90
37594;DHT22;23441;50.856;6.076;2022-09-12T06:43:50;14.30;99.90
37594;DHT22;23441;50.856;6.076;2022-09-12T06:46:15;14.30;99.90
37594;DHT22;23441;50.856;6.076;2022-09-12T06:48:41;14.30;99.90
37594;DHT22;23441;50.856;6.076;2022-09-12T06:51:13;14.50;99.90
37594;DHT22;23441;50.856;6.076;2022-09-12T06:53:42;14.70;99.90
37594;DHT22;23441;50.856;6.076;2022-09-12T06:56:09;14.90;99.90
37594;DHT22;23441;50.856;6.076;2022-09-12T06:58:40;15.10;99.90
37594;DHT22;23441;50.856;6.076;2022-09-12T07:01:12;15.20;99.90
37594;DHT22;23441;50.856;6.076;2022-09-12T07:03:42;15.30;99.90
37594;DHT22;23441;50.856;6.076;2022-09-12T07:06:12;15.40;99.90
37594;DHT22;23441;50.856;6.076;2022-09-12T07:08:39;15.60;99.90
37594;DHT22;23441;50.856;6.076;2022-09-12T07:11:21;15.70;99.90
37594;DHT22;23441;50.856;6.076;2022-09-12T07:13:51;15.90;99.90
37594;DHT22;23441;50.856;6.076;2022-09-12T07:16:18;16.00;99.90
37594;DHT22;23441;50.856;6.076;2022-09-12T07:18:49;16.20;99.90
37594;DHT22;23441;50.856;6.076;2022-09-12T07:21:16;16.30;99.90
37594;DHT22;23441;50.856;6.076;2022-09-12T07:23:42;16.50;99.90
37594;DHT22;23441;50.856;6.076;2022-09-12T07:26:10;16.70;99.90
37594;DHT22;23441;50.856;6.076;2022-09-12T07:28:37;16.90;99.90
37594;DHT22;23441;50.856;6.076;2022-09-12T07:31:05;17.10;99.90
37594;DHT22;23441;50.856;6.076;2022-09-12T07:33:31;17.30;99.90
37594;DHT22;23441;50.856;6.076;2022-09-12T07:36:02;17.40;99.90
37594;DHT22;23441;50.856;6.076;2022-09-12T07:38:30;17.60;99.90
37594;DHT22;23441;50.856;6.076;2022-09-12T07:40:56;17.50;99.90
37594;DHT22;23441;50.856;6.076;2022-09-12T07:43:22;17.60;99.90
37594;DHT22;23441;50.856;6.076;2022-09-12T07:45:53;17.50;99.90
37594;DHT22;23441;50.856;6.076;2022-09-12T07:48:19;17.50;99.90
37594;DHT22;23441;50.856;6.076;2022-09-12T07:50:45;17.40;99.90
37594;DHT22;23441;50.856;6.076;2022-09-12T07:53:11;17.40;99.90
37594;DHT22;23441;50.856;6.076;2022-09-12T07:55:37;17.10;99.90
37594;DHT22;23441;50.856;6.076;2022-09-12T07:58:03;17.10;99.90
37594;DHT22;23441;50.856;6.076;2022-09-12T08:00:29;17.00;99.90
37594;DHT22;23441;50.856;6.076;2022-09-12T08:03:00;17.00;99.90
37594;DHT22;23441;50.856;6.076;2022-09-12T08:05:27;17.10;99.90
37594;DHT22;23441;50.856;6.076;2022-09-12T08:07:54;17.30;99.90
37594;DHT22;23441;50.856;6.076;2022-09-12T08:10:20;17.20;99.90
37594;DHT22;23441;50.856;6.076;2022-09-12T08:12:46;17.30;99.90
37594;DHT22;23441;50.856;6.076;2022-09-12T08:15:12;17.30;99.90
37594;DHT22;23441;50.856;6.076;2022-09-12T08:17:38;17.30;99.90
37594;DHT22;23441;50.856;6.076;2022-09-12T08:20:04;17.30;99.90
37594;DHT22;23441;50.856;6.076;2022-09-12T08:22:30;17.40;99.90
37594;DHT22;23441;50.856;6.076;2022-09-12T08:24:56;17.60;99.90
37594;DHT22;23441;50.856;6.076;2022-09-12T08:27:23;17.60;99.90
37594;DHT22;23441;50.856;6.076;2022-09-12T08:29:49;17.80;99.90
37594;DHT22;23441;50.856;6.076;2022-09-12T08:32:14;18.00;99.90
37594;DHT22;23441;50.856;6.076;2022-09-12T08:34:40;18.20;99.90
37594;DHT22;23441;50.856;6.076;2022-09-12T08:37:06;18.50;99.90
37594;DHT22;23441;50.856;6.076;2022-09-12T08:39:32;18.50;99.90
37594;DHT22;23441;50.856;6.076;2022-09-12T08:42:01;18.60;99.90
37594;DHT22;23441;50.856;6.076;2022-09-12T08:44:43;18.60;99.90
37594;DHT22;23441;50.856;6.076;2022-09-12T08:52:47;18.80;99.90
37594;DHT22;23441;50.856;6.076;2022-09-12T08:55:38;18.90;99.90
37594;DHT22;23441;50.856;6.076;2022-09-12T08:58:13;19.00;99.90
37594;DHT22;23441;50.856;6.076;2022-09-12T09:04:08;19.10;99.90
37594;DHT22;23441;50.856;6.076;2022-09-12T09:12:48;19.40;99.90
37594;DHT22;23441;50.856;6.076;2022-09-12T09:18:21;19.50;99.90
37594;DHT22;23441;50.856;6.076;2022-09-12T09:21:13;19.60;99.90
37594;DHT22;23441;50.856;6.076;2022-09-12T09:24:26;19.70;99.90
37594;DHT22;23441;50.856;6.076;2022-09-12T09:27:05;19.90;99.90
37594;DHT22;23441;50.856;6.076;2022-09-12T09:29:40;20.00;99.90
37594;DHT22;23441;50.856;6.076;2022-09-12T09:32:17;20.10;99.90
37594;DHT22;23441;50.856;6.076;2022-09-12T09:34:47;20.10;99.90
37594;DHT22;23441;50.856;6.076;2022-09-12T09:42:55;20.40;99.90
37594;DHT22;23441;50.856;6.076;2022-09-12T09:45:26;20.40;99.90
37594;DHT22;23441;50.856;6.076;2022-09-12T09:48:00;20.40;99.90
37594;DHT22;23441;50.856;6.076;2022-09-12T09:50:36;20.50;99.90
37594;DHT22;23441;50.856;6.076;2022-09-12T09:53:04;20.70;99.90
37594;DHT22;23441;50.856;6.076;2022-09-12T09:55:40;20.70;99.90
37594;DHT22;23441;50.856;6.076;2022-09-12T09:58:07;20.70;99.90
37594;DHT22;23441;50.856;6.076;2022-09-12T10:00:35;20.90;99.90
37594;DHT22;23441;50.856;6.076;2022-09-12T10:08:49;21.20;99.90
37594;DHT22;23441;50.856;6.076;2022-09-12T10:11:21;21.20;99.90
37594;DHT22;23441;50.856;6.076;2022-09-12T10:13:52;21.20;99.90
37594;DHT22;23441;50.856;6.076;2022-09-12T10:16:49;21.20;99.90
37594;DHT22;23441;50.856;6.076;2022-09-12T10:19:32;21.30;99.90
37594;DHT22;23441;50.856;6.076;2022-09-12T10:22:00;21.50;99.90
37594;DHT22;23441;50.856;6.076;2022-09-12T10:24:36;21.40;99.90
37594;DHT22;23441;50.856;6.076;2022-09-12T10:32:26;21.70;99.90
37594;DHT22;23441;50.856;6.076;2022-09-12T10:38:03;21.60;99.90
37594;DHT22;23441;50.856;6.076;2022-09-12T10:40:37;21.60;99.90
37594;DHT22;23441;50.856;6.076;2022-09-12T10:45:50;21.30;99.90
37594;DHT22;23441;50.856;6.076;2022-09-12T10:50:49;21.40;99.90
37594;DHT22;23441;50.856;6.076;2022-09-12T10:53:25;21.50;99.90
37594;DHT22;23441;50.856;6.076;2022-09-12T10:56:11;21.60;99.90
37594;DHT22;23441;50.856;6.076;2022-09-12T11:06:38;22.10;99.90
37594;DHT22;23441;50.856;6.076;2022-09-12T11:09:41;22.20;99.90
37594;DHT22;23441;50.856;6.076;2022-09-12T11:12:18;22.50;99.90
37594;DHT22;23441;50.856;6.076;2022-09-12T11:17:32;23.50;99.90
37594;DHT22;23441;50.856;6.076;2022-09-12T11:25:53;24.60;99.90
37594;DHT22;23441;50.856;6.076;2022-09-12T11:29:03;24.60;99.90
37594;DHT22;23441;50.856;6.076;2022-09-12T11:35:30;24.40;99.90
37594;DHT22;23441;50.856;6.076;2022-09-12T11:44:26;24.30;99.90
37594;DHT22;23441;50.856;6.076;2022-09-12T11:46:54;24.40;98.20
37594;DHT22;23441;50.856;6.076;2022-09-12T11:49:30;24.40;99.90
37594;DHT22;23441;50.856;6.076;2022-09-12T11:52:21;24.50;99.90
37594;DHT22;23441;50.856;6.076;2022-09-12T11:55:01;24.70;99.90
37594;DHT22;23441;50.856;6.076;2022-09-12T12:00:16;24.90;99.00
37594;DHT22;23441;50.856;6.076;2022-09-12T12:08:00;25.10;98.60
37594;DHT22;23441;50.856;6.076;2022-09-12T12:10:46;25.10;97.20
37594;DHT22;23441;50.856;6.076;2022-09-12T12:13:20;25.30;97.70
37594;DHT22;23441;50.856;6.076;2022-09-12T12:16:00;25.50;96.20
37594;DHT22;23441;50.856;6.076;2022-09-12T12:18:30;25.40;92.70
37594;DHT22;23441;50.856;6.076;2022-09-12T12:29:12;26.00;91.40
37594;DHT22;23441;50.856;6.076;2022-09-12T12:34:38;26.40;92.90
37594;DHT22;23441;50.856;6.076;2022-09-12T12:45:01;26.90;93.20
37594;DHT22;23441;50.856;6.076;2022-09-12T12:47:32;26.80;94.20
37594;DHT22;23441;50.856;6.076;2022-09-12T12:55:34;27.00;91.40
37594;DHT22;23441;50.856;6.076;2022-09-12T12:58:06;27.00;92.80
37594;DHT22;23441;50.856;6.076;2022-09-12T13:00:45;27.10;88.90
37594;DHT22;23441;50.856;6.076;2022-09-12T13:03:29;27.40;92.60
37594;DHT22;23441;50.856;6.076;2022-09-12T13:06:05;27.60;91.50
37594;DHT22;23441;50.856;6.076;2022-09-12T13:08:39;27.60;84.70
37594;DHT22;23441;50.856;6.076;2022-09-12T13:11:13;27.60;92.50
37594;DHT22;23441;50.856;6.076;2022-09-12T13:13:56;27.60;90.30
37594;DHT22;23441;50.856;6.076;2022-09-12T13:16:34;27.60;86.10
37594;DHT22;23441;50.856;6.076;2022-09-12T13:19:10;27.80;85.10
37594;DHT22;23441;50.856;6.076;2022-09-12T13:21:38;27.90;89.60
37594;DHT22;23441;50.856;6.076;2022-09-12T13:24:14;28.20;90.10
37594;DHT22;23441;50.856;6.076;2022-09-12T13:26:43;28.20;89.10
37594;DHT22;23441;50.856;6.076;2022-09-12T13:29:20;28.10;90.30
37594;DHT22;23441;50.856;6.076;2022-09-12T13:31:56;28.20;90.50
37594;DHT22;23441;50.856;6.076;2022-09-12T13:34:59;27.90;87.80
37594;DHT22;23441;50.856;6.076;2022-09-12T13:38:19;27.90;87.60
37594;DHT22;23441;50.856;6.076;2022-09-12T13:43:42;28.10;90.10
37594;DHT22;23441;50.856;6.076;2022-09-12T13:46:14;28.20;90.30
37594;DHT22;23441;50.856;6.076;2022-09-12T13:48:43;28.20;87.60
37594;DHT22;23441;50.856;6.076;2022-09-12T13:51:22;27.90;85.70
37594;DHT22;23441;50.856;6.076;2022-09-12T13:53:52;28.10;91.00
37594;DHT22;23441;50.856;6.076;2022-09-12T13:56:20;28.10;86.80
37594;DHT22;23441;50.856;6.076;2022-09-12T13:58:57;27.90;86.90
37594;DHT22;23441;50.856;6.076;2022-09-12T14:01:43;28.10;90.80
37594;DHT22;23441;50.856;6.076;2022-09-12T14:04:22;28.10;85.40
37594;DHT22;23441;50.856;6.076;2022-09-12T14:07:14;28.20;84.50
37594;DHT22;23441;50.856;6.076;2022-09-12T14:09:51;28.00;86.50
37594;DHT22;23441;50.856;6.076;2022-09-12T14:12:41;27.90;82.60
37594;DHT22;23441;50.856;6.076;2022-09-12T14:15:23;27.80;87.90
37594;DHT22;23441;50.856;6.076;2022-09-12T14:17:54;27.70;89.00
37594;DHT22;23441;50.856;6.076;2022-09-12T14:20:24;27.40;87.70
37594;DHT22;23441;50.856;6.076;2022-09-12T14:22:50;27.30;88.60
37594;DHT22;23441;50.856;6.076;2022-09-12T14:25:22;27.10;90.40
37594;DHT22;23441;50.856;6.076;2022-09-12T14:27:54;27.00;90.10
37594;DHT22;23441;50.856;6.076;2022-09-12T14:30:33;26.80;87.70
37594;DHT22;23441;50.856;6.076;2022-09-12T14:35:45;26.90;87.20
37594;DHT22;23441;50.856;6.076;2022-09-12T14:41:00;27.00;89.80
37594;DHT22;23441;50.856;6.076;2022-09-12T14:43:35;27.10;87.90
37594;DHT22;23441;50.856;6.076;2022-09-12T14:46:16;27.00;85.10
37594;DHT22;23441;50.856;6.076;2022-09-12T14:49:07;27.00;85.90
37594;DHT22;23441;50.856;6.076;2022-09-12T14:51:47;26.80;85.50
37594;DHT22;23441;50.856;6.076;2022-09-12T14:57:31;26.40;86.00
37594;DHT22;23441;50.856;6.076;2022-09-12T15:02:39;26.10;85.30
37594;DHT22;23441;50.856;6.076;2022-09-12T15:07:57;25.90;89.20
37594;DHT22;23441;50.856;6.076;2022-09-12T15:10:41;25.60;89.80
37594;DHT22;23441;50.856;6.076;2022-09-12T15:15:34;25.60;91.30
37594;DHT22;23441;50.856;6.076;2022-09-12T15:18:01;25.70;89.60
37594;DHT22;23441;50.856;6.076;2022-09-12T15:20:27;25.80;88.60
37594;DHT22;23441;50.856;6.076;2022-09-12T15:22:53;25.80;88.10
37594;DHT22;23441;50.856;6.076;2022-09-12T15:25:19;25.70;87.80
37594;DHT22;23441;50.856;6.076;2022-09-12T15:27:46;25.80;87.50
37594;DHT22;23441;50.856;6.076;2022-09-12T15:30:12;25.90;90.10
37594;DHT22;23441;50.856;6.076;2022-09-12T15:32:40;25.80;88.20
37594;DHT22;23441;50.856;6.076;2022-09-12T15:37:43;25.90;85.40
37594;DHT22;23441;50.856;6.076;2022-09-12T15:40:10;25.80;90.00
37594;DHT22;23441;50.856;6.076;2022-09-12T15:42:36;25.70;90.20
37594;DHT22;23441;50.856;6.076;2022-09-12T15:45:24;25.60;89.50
37594;DHT22;23441;50.856;6.076;2022-09-12T15:47:52;25.50;88.10
37594;DHT22;23441;50.856;6.076;2022-09-12T15:50:18;25.50;89.70
37594;DHT22;23441;50.856;6.076;2022-09-12T15:52:45;25.40;91.20
37594;DHT22;23441;50.856;6.076;2022-09-12T15:55:17;25.30;90.60
37594;DHT22;23441;50.856;6.076;2022-09-12T15:57:44;25.40;90.30
37594;DHT22;23441;50.856;6.076;2022-09-12T16:00:12;25.50;85.90
37594;DHT22;23441;50.856;6.076;2022-09-12T16:02:38;25.60;85.70
37594;DHT22;23441;50.856;6.076;2022-09-12T16:05:05;25.60;85.60
37594;DHT22;23441;50.856;6.076;2022-09-12T16:07:31;25.50;88.40
37594;DHT22;23441;50.856;6.076;2022-09-12T16:09:57;25.40;90.50
37594;DHT22;23441;50.856;6.076;2022-09-12T16:12:23;25.20;89.90
37594;DHT22;23441;50.856;6.076;2022-09-12T16:14:49;25.00;91.00
37594;DHT22;23441;50.856;6.076;2022-09-12T16:17:15;24.90;92.30
37594;DHT22;23441;50.856;6.076;2022-09-12T16:19:41;24.80;90.30
37594;DHT22;23441;50.856;6.076;2022-09-12T16:22:07;24.90;90.10
37594;DHT22;23441;50.856;6.076;2022-09-12T16:24:32;24.80;90.00
37594;DHT22;23441;50.856;6.076;2022-09-12T16:26:58;24.70;89.90
37594;DHT22;23441;50.856;6.076;2022-09-12T16:29:24;24.70;90.10
37594;DHT22;23441;50.856;6.076;2022-09-12T16:31:50;24.70;89.40
37594;DHT22;23441;50.856;6.076;2022-09-12T16:34:16;24.80;88.80
37594;DHT22;23441;50.856;6.076;2022-09-12T16:36:42;24.80;89.60
37594;DHT22;23441;50.856;6.076;2022-09-12T16:39:09;24.80;90.30
37594;DHT22;23441;50.856;6.076;2022-09-12T16:41:35;24.80;88.10
37594;DHT22;23441;50.856;6.076;2022-09-12T16:44:02;24.60;89.90
37594;DHT22;23441;50.856;6.076;2022-09-12T16:46:28;24.60;90.10
37594;DHT22;23441;50.856;6.076;2022-09-12T16:48:55;24.50;89.60
37594;DHT22;23441;50.856;6.076;2022-09-12T16:51:25;24.50;90.20
37594;DHT22;23441;50.856;6.076;2022-09-12T16:53:53;24.40;91.00
37594;DHT22;23441;50.856;6.076;2022-09-12T16:56:20;24.30;91.40
37594;DHT22;23441;50.856;6.076;2022-09-12T16:58:47;24.30;91.10
37594;DHT22;23441;50.856;6.076;2022-09-12T17:01:18;24.10;91.90
37594;DHT22;23441;50.856;6.076;2022-09-12T17:03:55;24.00;92.20
37594;DHT22;23441;50.856;6.076;2022-09-12T17:06:23;24.10;91.60
37594;DHT22;23441;50.856;6.076;2022-09-12T17:08:51;24.00;92.50
37594;DHT22;23441;50.856;6.076;2022-09-12T17:11:19;23.90;92.00
37594;DHT22;23441;50.856;6.076;2022-09-12T17:13:48;23.80;92.20
37594;DHT22;23441;50.856;6.076;2022-09-12T17:16:17;23.60;93.80
37594;DHT22;23441;50.856;6.076;2022-09-12T17:18:44;23.50;94.60
37594;DHT22;23441;50.856;6.076;2022-09-12T17:21:11;23.30;96.30
37594;DHT22;23441;50.856;6.076;2022-09-12T17:23:37;23.00;97.40
37594;DHT22;23441;50.856;6.076;2022-09-12T17:26:05;22.80;97.90
37594;DHT22;23441;50.856;6.076;2022-09-12T17:28:33;22.60;98.30
37594;DHT22;23441;50.856;6.076;2022-09-12T17:31:00;22.40;99.50
37594;DHT22;23441;50.856;6.076;2022-09-12T17:33:31;22.20;99.90
37594;DHT22;23441;50.856;6.076;2022-09-12T17:36:01;22.00;99.90
37594;DHT22;23441;50.856;6.076;2022-09-12T17:38:31;21.90;99.90
37594;DHT22;23441;50.856;6.076;2022-09-12T17:41:06;21.70;99.90
37594;DHT22;23441;50.856;6.076;2022-09-12T17:43:37;21.60;99.90
37594;DHT22;23441;50.856;6.076;2022-09-12T17:46:05;21.50;99.90
37594;DHT22;23441;50.856;6.076;2022-09-12T17:48:32;21.40;99.90
37594;DHT22;23441;50.856;6.076;2022-09-12T17:51:09;21.30;99.90
37594;DHT22;23441;50.856;6.076;2022-09-12T17:53:36;21.10;99.90
37594;DHT22;23441;50.856;6.076;2022-09-12T17:56:06;21.00;99.90
37594;DHT22;23441;50.856;6.076;2022-09-12T17:58:33;20.80;99.90
37594;DHT22;23441;50.856;6.076;2022-09-12T18:01:09;20.80;99.90
37594;DHT22;23441;50.856;6.076;2022-09-12T18:03:57;20.70;99.90
37594;DHT22;23441;50.856;6.076;2022-09-12T18:06:29;20.60;99.90
37594;DHT22;23441;50.856;6.076;2022-09-12T18:09:04;20.50;99.90
37594;DHT22;23441;50.856;6.076;2022-09-12T18:11:32;20.40;99.90
37594;DHT22;23441;50.856;6.076;2022-09-12T18:13:59;20.30;99.90
37594;DHT22;23441;50.856;6.076;2022-09-12T18:16:25;20.20;99.90
37594;DHT22;23441;50.856;6.076;2022-09-12T18:18:53;20.10;99.90
37594;DHT22;23441;50.856;6.076;2022-09-12T18:21:20;20.00;99.90
37594;DHT22;23441;50.856;6.076;2022-09-12T18:23:46;19.90;99.90
37594;DHT22;23441;50.856;6.076;2022-09-12T18:26:12;19.90;99.90
37594;DHT22;23441;50.856;6.076;2022-09-12T18:28:41;19.80;99.90
37594;DHT22;23441;50.856;6.076;2022-09-12T18:31:14;19.70;99.90
37594;DHT22;23441;50.856;6.076;2022-09-12T18:33:42;19.60;99.90
37594;DHT22;23441;50.856;6.076;2022-09-12T18:36:10;19.50;99.90
37594;DHT22;23441;50.856;6.076;2022-09-12T18:38:37;19.50;99.90
37594;DHT22;23441;50.856;6.076;2022-09-12T18:41:05;19.40;99.90
37594;DHT22;23441;50.856;6.076;2022-09-12T18:43:36;19.40;99.90
37594;DHT22;23441;50.856;6.076;2022-09-12T18:46:07;19.30;99.90
37594;DHT22;23441;50.856;6.076;2022-09-12T18:48:34;19.30;99.90
37594;DHT22;23441;50.856;6.076;2022-09-12T18:51:06;19.20;99.90